Time;durP1;ratioP1;P1;durP2;ratioP2;P2;SDS_P1;SDS_P2;PMS_P1;PMS_P2;Temp;Humidity;BMP_temperature;BMP_pressure;BME280_temperature;BME280_humidity;BME280_pressure;Samples;Min_cycle;Max_cycle;Signal;HPM_P1;HPM_P2
2022/07/28 00:00:18;;;;;;;4.40;0.68;;;15.60;99.20;;;;;;4995135;28;20047;-72
2022/07/28 00:02:44;;;;;;;2.55;0.50;;;15.70;99.40;;;;;;4997731;28;20041;-72
2022/07/28 00:05:10;;;;;;;2.42;0.63;;;15.60;99.40;;;;;;4996184;28;20096;-70
2022/07/28 00:07:35;;;;;;;2.65;0.35;;;15.50;99.50;;;;;;4997492;28;20510;-72
2022/07/28 00:10:01;;;;;;;4.65;0.50;;;15.60;99.40;;;;;;4997232;28;20398;-72
2022/07/28 00:12:27;;;;;;;0.60;0.25;;;15.60;99.40;;;;;;4994871;28;20078;-70
2022/07/28 00:14:52;;;;;;;2.88;0.43;;;15.50;99.60;;;;;;4997003;28;20096;-72
2022/07/28 00:17:18;;;;;;;3.40;0.75;;;15.50;99.40;;;;;;5016538;28;20038;-72
2022/07/28 00:19:43;;;;;;;2.92;0.40;;;15.60;99.40;;;;;;5003251;28;20566;-72
2022/07/28 00:22:09;;;;;;;4.57;0.43;;;15.50;99.30;;;;;;4996691;28;20104;-71
2022/07/28 00:24:36;;;;;;;1.45;0.40;;;15.50;99.50;;;;;;4994737;28;20084;-72
2022/07/28 00:27:03;;;;;;;0.98;0.45;;;15.40;99.60;;;;;;5001222;28;20022;-71
2022/07/28 00:29:28;;;;;;;3.00;0.38;;;15.40;99.60;;;;;;4995978;28;20042;-71
2022/07/28 00:31:54;;;;;;;3.47;0.38;;;15.40;99.60;;;;;;4996666;28;20727;-72
2022/07/28 00:34:20;;;;;;;1.98;0.30;;;15.40;99.60;;;;;;4994158;28;20038;-72
2022/07/28 00:36:45;;;;;;;1.17;0.30;;;15.40;99.60;;;;;;5001063;28;20023;-72
2022/07/28 00:39:11;;;;;;;3.38;0.45;;;15.30;99.80;;;;;;4998470;28;20041;-72
2022/07/28 00:41:36;;;;;;;5.30;0.47;;;15.30;99.90;;;;;;4996271;28;20034;-72
2022/07/28 00:44:05;;;;;;;2.25;0.40;;;15.20;99.80;;;;;;4996238;28;20027;-71
2022/07/28 00:46:30;;;;;;;2.05;0.65;;;15.20;99.90;;;;;;4997034;28;20469;-71
2022/07/28 00:48:56;;;;;;;1.45;0.30;;;15.20;99.90;;;;;;4996041;28;20058;-72
2022/07/28 00:51:23;;;;;;;1.48;0.50;;;15.20;99.90;;;;;;4997851;28;20096;-71
2022/07/28 00:53:50;;;;;;;2.08;0.57;;;15.00;99.90;;;;;;4994631;28;20069;-72
2022/07/28 00:56:15;;;;;;;1.67;0.43;;;15.00;99.90;;;;;;5000414;28;20033;-71
2022/07/28 00:58:41;;;;;;;2.45;0.40;;;15.00;99.90;;;;;;5002590;28;20402;-72
2022/07/28 01:01:10;;;;;;;2.33;0.47;;;15.10;99.90;;;;;;4998050;28;20049;-71
2022/07/28 01:03:39;;;;;;;3.60;1.10;;;15.00;99.90;;;;;;5000866;28;20410;-72
2022/07/28 01:06:26;;;;;;;0.82;0.30;;;15.00;99.90;;;;;;4998016;28;20486;-72
2022/07/28 01:09:17;;;;;;;6.78;0.68;;;15.00;99.90;;;;;;5022560;28;20140;-72
2022/07/28 01:12:20;;;;;;;0.57;0.30;;;14.90;99.90;;;;;;5002135;28;20699;-72
2022/07/28 01:15:03;;;;;;;2.20;0.30;;;14.90;99.90;;;;;;5021081;28;20070;-71
2022/07/28 01:17:43;;;;;;;0.47;0.20;;;14.80;99.90;;;;;;5002629;28;20037;-72
2022/07/28 01:20:14;;;;;;;4.13;0.40;;;14.80;99.90;;;;;;5001239;28;20038;-72
2022/07/28 01:22:41;;;;;;;;;;;14.80;99.90;;;;;;4998907;28;20069;-72
2022/07/28 01:25:32;;;;;;;2.83;0.40;;;14.80;99.90;;;;;;5000548;28;20447;-70
2022/07/28 01:28:43;;;;;;;1.83;0.40;;;14.80;99.90;;;;;;5001903;28;20037;-72
2022/07/28 01:31:13;;;;;;;1.73;0.40;;;14.80;99.90;;;;;;4991453;28;20502;-72
2022/07/28 01:33:44;;;;;;;5.30;0.20;;;14.70;99.90;;;;;;5002551;28;20029;-72
2022/07/28 01:36:16;;;;;;;3.00;0.50;;;14.80;99.90;;;;;;5002008;28;20529;-72
2022/07/28 01:38:43;;;;;;;0.95;0.45;;;14.70;99.90;;;;;;5001491;28;20065;-72
2022/07/28 01:41:13;;;;;;;5.38;0.75;;;14.80;99.90;;;;;;4998048;28;20035;-71
2022/07/28 01:43:43;;;;;;;2.83;0.98;;;14.80;99.90;;;;;;5001034;28;20093;-72
2022/07/28 01:46:10;;;;;;;2.30;0.57;;;14.80;99.90;;;;;;5004113;28;20490;-72
2022/07/28 01:48:39;;;;;;;1.80;0.47;;;14.80;99.90;;;;;;5000880;28;20033;-72
2022/07/28 01:51:06;;;;;;;3.10;0.50;;;14.70;99.90;;;;;;4998466;28;20042;-72
2022/07/28 01:53:33;;;;;;;2.15;0.30;;;14.70;99.90;;;;;;5014527;28;20117;-71
2022/07/28 01:56:02;;;;;;;0.98;0.38;;;14.60;99.90;;;;;;4997228;28;20088;-72
2022/07/28 01:58:29;;;;;;;1.58;0.68;;;14.70;99.90;;;;;;4998083;28;20498;-72
2022/07/28 02:00:56;;;;;;;0.68;0.20;;;14.60;99.90;;;;;;4999157;28;20120;-71
2022/07/28 02:03:24;;;;;;;3.33;0.45;;;14.70;99.90;;;;;;5017752;28;20042;-72
2022/07/28 02:05:53;;;;;;;5.43;0.60;;;14.60;99.90;;;;;;4998323;28;20038;-72
2022/07/28 02:08:20;;;;;;;4.93;0.85;;;14.60;99.90;;;;;;4998866;28;20494;-70
2022/07/28 02:11:38;;;;;;;3.05;0.40;;;14.60;99.90;;;;;;5012533;28;20042;-72
2022/07/28 02:13:36;;;;;;;2.92;0.30;;;14.60;99.90;;;;;;4997087;28;20053;-72
2022/07/28 02:16:06;;;;;;;0.95;0.38;;;14.60;99.90;;;;;;5000180;28;20072;-72
2022/07/28 02:18:33;;;;;;;2.00;0.37;;;14.50;99.90;;;;;;5007308;28;20040;-72
2022/07/28 02:21:01;;;;;;;0.75;0.35;;;14.50;99.90;;;;;;4999101;28;20288;-72
2022/07/28 02:23:27;;;;;;;1.75;0.38;;;14.60;99.90;;;;;;4996765;28;20034;-71
2022/07/28 02:25:54;;;;;;;2.88;0.50;;;14.60;99.90;;;;;;5001135;28;20037;-72
2022/07/28 02:28:21;;;;;;;2.08;0.20;;;14.60;99.90;;;;;;4998183;28;20041;-72
2022/07/28 02:30:53;;;;;;;0.68;0.17;;;14.60;99.90;;;;;;4999642;28;20038;-72
2022/07/28 02:33:23;;;;;;;1.52;0.40;;;14.60;99.90;;;;;;5012339;28;20038;-72
2022/07/28 02:36:05;;;;;;;5.82;0.50;;;14.60;99.90;;;;;;5000651;28;20114;-71
2022/07/28 02:38:37;;;;;;;1.20;0.30;;;14.60;99.90;;;;;;4999106;28;20566;-71
2022/07/28 02:41:11;;;;;;;3.22;0.50;;;14.50;99.90;;;;;;4997178;28;20046;-69
2022/07/28 02:43:41;;;;;;;2.50;0.63;;;14.50;99.90;;;;;;4999595;28;20038;-71
2022/07/28 02:46:12;;;;;;;2.70;0.40;;;14.50;99.90;;;;;;5011572;28;20034;-71
2022/07/28 02:48:40;;;;;;;4.72;0.35;;;14.50;99.90;;;;;;5000229;28;20030;-71
2022/07/28 02:51:07;;;;;;;3.00;0.45;;;14.50;99.90;;;;;;4995153;28;20037;-71
2022/07/28 02:53:33;;;;;;;3.55;0.40;;;14.50;99.90;;;;;;4998592;28;20038;-72
2022/07/28 02:56:00;;;;;;;0.85;0.35;;;14.40;99.90;;;;;;4997299;28;20497;-72
2022/07/28 02:58:27;;;;;;;5.25;0.75;;;14.40;99.90;;;;;;4998745;28;20045;-72
2022/07/28 03:00:54;;;;;;;4.32;0.40;;;14.40;99.90;;;;;;4997976;28;20461;-71
2022/07/28 03:03:21;;;;;;;1.35;0.47;;;14.40;99.90;;;;;;4996803;28;20034;-71
2022/07/28 03:05:47;;;;;;;2.78;0.40;;;14.50;99.90;;;;;;4998518;28;20101;-71
2022/07/28 03:08:15;;;;;;;1.60;0.52;;;14.50;99.90;;;;;;4995483;28;20430;-71
2022/07/28 03:10:41;;;;;;;2.22;0.40;;;14.50;99.90;;;;;;4999577;28;20398;-71
2022/07/28 03:13:07;;;;;;;2.60;0.45;;;14.40;99.90;;;;;;4994984;28;20058;-72
2022/07/28 03:15:34;;;;;;;4.40;0.68;;;14.40;99.90;;;;;;4999132;28;20091;-71
2022/07/28 03:18:00;;;;;;;9.20;0.88;;;14.40;99.90;;;;;;4996962;28;20042;-71
2022/07/28 03:20:26;;;;;;;5.22;0.90;;;14.50;99.90;;;;;;4997218;28;20553;-70
2022/07/28 03:22:52;;;;;;;1.48;0.40;;;14.50;99.90;;;;;;4996720;28;20045;-71
2022/07/28 03:25:37;;;;;;;2.92;0.60;;;14.40;99.90;;;;;;5002940;28;20077;-70
2022/07/28 03:28:04;;;;;;;2.22;0.32;;;14.40;99.90;;;;;;4999223;28;20124;-72
2022/07/28 03:30:40;;;;;;;2.17;0.63;;;14.40;99.90;;;;;;4996146;28;20384;-70
2022/07/28 03:33:06;;;;;;;2.38;0.85;;;14.40;99.90;;;;;;4998472;28;20040;-71
2022/07/28 03:35:34;;;;;;;1.58;0.20;;;14.40;99.90;;;;;;4995881;28;20038;-71
2022/07/28 03:38:07;;;;;;;5.13;0.43;;;14.40;99.90;;;;;;5005272;28;20088;-72
2022/07/28 03:40:35;;;;;;;5.70;0.47;;;14.40;99.90;;;;;;4996173;28;20093;-71
2022/07/28 03:43:05;;;;;;;2.25;0.35;;;14.40;99.90;;;;;;4997578;28;20034;-72
2022/07/28 03:45:30;;;;;;;0.67;0.30;;;14.40;99.90;;;;;;4995937;28;20038;-72
2022/07/28 03:47:57;;;;;;;0.80;0.30;;;14.30;99.90;;;;;;4998066;28;20081;-72
2022/07/28 03:50:28;;;;;;;1.50;0.30;;;14.30;99.90;;;;;;4997097;28;20029;-71
2022/07/28 03:52:56;;;;;;;5.13;0.40;;;14.40;99.90;;;;;;4996706;28;20038;-71
2022/07/28 03:55:23;;;;;;;5.05;0.65;;;14.40;99.90;;;;;;4996585;28;20050;-71
2022/07/28 03:57:48;;;;;;;4.35;0.40;;;14.40;99.90;;;;;;4995247;28;20586;-72
2022/07/28 04:00:15;;;;;;;3.10;0.40;;;14.40;99.90;;;;;;4996586;28;20087;-71
2022/07/28 04:02:44;;;;;;;0.70;0.25;;;14.30;99.90;;;;;;4995499;28;20030;-72
2022/07/28 04:05:14;;;;;;;3.40;0.20;;;14.40;99.90;;;;;;4997003;28;20069;-70
2022/07/28 04:07:40;;;;;;;5.32;0.77;;;14.30;99.90;;;;;;4996009;28;20442;-71
2022/07/28 04:10:09;;;;;;;6.65;0.55;;;14.30;99.90;;;;;;4996690;28;20034;-71
2022/07/28 04:12:50;;;;;;;1.58;0.30;;;14.30;99.90;;;;;;4994117;28;20129;-70
2022/07/28 04:15:16;;;;;;;5.15;0.40;;;14.40;99.90;;;;;;4999117;28;20080;-71
2022/07/28 04:17:43;;;;;;;2.08;0.20;;;14.40;99.90;;;;;;5011398;28;20126;-72
2022/07/28 04:20:10;;;;;;;2.40;0.38;;;14.40;99.90;;;;;;4997019;28;20084;-72
2022/07/28 04:22:36;;;;;;;1.42;0.43;;;14.40;99.90;;;;;;4994238;28;20089;-71
2022/07/28 04:25:02;;;;;;;1.08;0.40;;;14.40;99.90;;;;;;5001394;28;20022;-72
2022/07/28 04:27:27;;;;;;;1.75;0.32;;;14.40;99.90;;;;;;4999797;28;20035;-71
2022/07/28 04:29:53;;;;;;;6.22;0.65;;;14.40;99.90;;;;;;5012050;28;20050;-72
2022/07/28 04:32:19;;;;;;;5.07;0.50;;;14.40;99.90;;;;;;5005611;28;20060;-69
2022/07/28 04:34:44;;;;;;;2.92;0.40;;;14.30;99.90;;;;;;5005038;28;20085;-72
2022/07/28 04:37:10;;;;;;;4.53;1.00;;;14.40;99.90;;;;;;5003443;28;20782;-71
2022/07/28 04:39:36;;;;;;;2.40;0.30;;;14.30;99.90;;;;;;5002415;28;20147;-71
2022/07/28 04:42:02;;;;;;;2.85;0.55;;;14.30;99.90;;;;;;4999128;28;20491;-71
2022/07/28 04:44:27;;;;;;;3.65;0.50;;;14.30;99.90;;;;;;5000368;28;20026;-71
2022/07/28 04:46:53;;;;;;;2.15;0.40;;;14.30;99.90;;;;;;5008067;28;20034;-71
2022/07/28 04:49:18;;;;;;;2.95;0.73;;;14.30;99.90;;;;;;5009588;28;20516;-72
2022/07/28 04:51:48;;;;;;;6.35;0.50;;;14.30;99.90;;;;;;5006778;28;20301;-73
2022/07/28 04:54:14;;;;;;;1.90;0.30;;;14.30;99.90;;;;;;4998843;28;20057;-71
2022/07/28 04:56:39;;;;;;;5.00;0.30;;;14.20;99.90;;;;;;5007717;28;20095;-71
2022/07/28 04:59:05;;;;;;;1.58;0.40;;;14.30;99.90;;;;;;5003512;28;20375;-72
2022/07/28 05:01:30;;;;;;;3.22;0.40;;;14.40;99.90;;;;;;5003972;28;20041;-69
2022/07/28 05:03:56;;;;;;;3.78;0.73;;;14.30;99.90;;;;;;5002944;28;20052;-73
2022/07/28 05:06:22;;;;;;;4.65;0.60;;;14.30;99.90;;;;;;5005612;28;20120;-71
2022/07/28 05:08:49;;;;;;;3.25;0.40;;;14.40;99.90;;;;;;5004947;28;20041;-71
2022/07/28 05:11:15;;;;;;;0.70;0.47;;;14.40;99.90;;;;;;5005743;28;20045;-71
2022/07/28 05:13:40;;;;;;;5.10;0.68;;;14.50;99.90;;;;;;5004738;28;20042;-72
2022/07/28 05:16:06;;;;;;;0.77;0.38;;;14.50;99.90;;;;;;5004799;28;20427;-72
2022/07/28 05:18:31;;;;;;;3.00;0.20;;;14.60;99.90;;;;;;5004989;28;20682;-72
2022/07/28 05:20:57;;;;;;;1.35;0.35;;;14.60;99.90;;;;;;5004305;28;20087;-71
2022/07/28 05:23:23;;;;;;;1.67;0.50;;;14.70;99.90;;;;;;5002610;28;20036;-71
2022/07/28 05:25:48;;;;;;;2.17;0.60;;;14.70;99.90;;;;;;5005400;28;20301;-72
2022/07/28 05:28:14;;;;;;;4.28;0.60;;;14.80;99.90;;;;;;5005395;28;20038;-72
2022/07/28 05:30:39;;;;;;;5.05;0.55;;;14.90;99.90;;;;;;5004531;28;20040;-70
2022/07/28 05:33:05;;;;;;;2.03;0.73;;;14.90;99.90;;;;;;5002903;28;20478;-72
2022/07/28 05:35:30;;;;;;;3.15;0.60;;;15.00;99.90;;;;;;5007231;28;20042;-70
2022/07/28 05:37:56;;;;;;;2.60;0.88;;;15.00;99.90;;;;;;5007258;28;20107;-72
2022/07/28 05:40:22;;;;;;;1.40;0.40;;;15.10;99.90;;;;;;5004907;28;20030;-71
2022/07/28 05:42:47;;;;;;;4.30;0.57;;;15.10;99.90;;;;;;5002952;28;20029;-71
2022/07/28 05:45:13;;;;;;;2.85;0.90;;;15.20;99.90;;;;;;5005423;28;20042;-72
2022/07/28 05:47:41;;;;;;;1.40;0.40;;;15.30;99.90;;;;;;5002937;28;20030;-72
2022/07/28 05:50:07;;;;;;;1.67;0.40;;;15.30;99.90;;;;;;5004171;28;20120;-70
2022/07/28 05:52:33;;;;;;;3.22;0.47;;;15.30;99.90;;;;;;5003477;28;20089;-71
2022/07/28 05:54:58;;;;;;;5.10;1.38;;;15.30;99.90;;;;;;5003257;28;20044;-68
2022/07/28 05:57:24;;;;;;;2.30;0.75;;;15.40;99.90;;;;;;5005668;28;20065;-71
2022/07/28 05:59:50;;;;;;;2.75;0.38;;;15.50;99.80;;;;;;5004169;28;20030;-70
2022/07/28 06:02:16;;;;;;;1.95;0.20;;;15.50;99.90;;;;;;5004110;28;20065;-72
2022/07/28 06:04:41;;;;;;;3.45;0.32;;;15.50;99.70;;;;;;5004742;28;20125;-71
2022/07/28 06:07:07;;;;;;;3.45;0.68;;;15.50;99.70;;;;;;5003933;28;20033;-69
2022/07/28 06:09:32;;;;;;;2.85;0.20;;;15.60;99.60;;;;;;5002598;28;20026;-71
2022/07/28 06:11:58;;;;;;;0.68;0.30;;;15.60;99.60;;;;;;5004611;28;20129;-70
2022/07/28 06:14:23;;;;;;;3.47;0.30;;;15.60;99.80;;;;;;5004016;28;20030;-70
2022/07/28 06:16:49;;;;;;;2.92;0.35;;;15.60;99.90;;;;;;5003798;28;20050;-72
2022/07/28 06:19:16;;;;;;;4.15;0.70;;;15.70;99.80;;;;;;5003706;28;20033;-72
2022/07/28 06:21:42;;;;;;;2.13;0.30;;;15.70;99.30;;;;;;5004180;28;20053;-72
2022/07/28 06:24:08;;;;;;;2.70;0.20;;;15.80;99.20;;;;;;5002886;28;20084;-71
2022/07/28 06:26:36;;;;;;;3.78;0.32;;;15.80;99.40;;;;;;5005114;28;20460;-72
2022/07/28 06:29:03;;;;;;;3.42;0.40;;;15.90;99.60;;;;;;5002379;28;20034;-72
2022/07/28 06:31:28;;;;;;;2.63;0.30;;;15.90;99.20;;;;;;5006478;28;20042;-72
2022/07/28 06:33:54;;;;;;;3.85;0.75;;;16.00;98.80;;;;;;5001047;28;20044;-71
2022/07/28 06:36:19;;;;;;;1.95;0.30;;;16.00;99.00;;;;;;5004122;28;20038;-72
2022/07/28 06:38:45;;;;;;;2.35;0.30;;;16.20;98.60;;;;;;5002099;28;20032;-72
2022/07/28 06:41:11;;;;;;;1.40;0.30;;;16.30;98.50;;;;;;5002668;28;20037;-70
2022/07/28 06:43:37;;;;;;;4.07;0.68;;;16.40;98.90;;;;;;4999558;28;20030;-72
2022/07/28 06:46:02;;;;;;;0.80;0.40;;;16.50;99.40;;;;;;5003722;28;20029;-72
2022/07/28 06:48:28;;;;;;;1.50;0.38;;;16.90;98.20;;;;;;5003538;28;20040;-71
2022/07/28 06:50:57;;;;;;;1.20;0.30;;;17.20;97.50;;;;;;5002943;28;20033;-72
2022/07/28 06:53:22;;;;;;;3.42;0.30;;;17.40;97.00;;;;;;4999546;28;20046;-72
2022/07/28 06:55:48;;;;;;;1.05;0.20;;;17.40;97.20;;;;;;5002986;28;20046;-72
2022/07/28 06:58:14;;;;;;;2.33;0.30;;;17.40;96.90;;;;;;5003561;28;20061;-71
2022/07/28 07:00:39;;;;;;;2.75;0.30;;;17.40;96.50;;;;;;5004245;28;20052;-71
2022/07/28 07:03:05;;;;;;;1.58;0.20;;;17.40;96.80;;;;;;5002650;28;20571;-71
2022/07/28 07:05:30;;;;;;;5.82;0.70;;;17.50;96.50;;;;;;5003773;28;20108;-72
2022/07/28 07:07:56;;;;;;;1.45;0.40;;;17.80;97.00;;;;;;5004266;28;20042;-72
2022/07/28 07:10:22;;;;;;;1.63;0.40;;;18.10;96.70;;;;;;5002017;28;20122;-72
2022/07/28 07:12:48;;;;;;;7.13;1.48;;;18.40;95.40;;;;;;5001253;28;20556;-72
2022/07/28 07:15:13;;;;;;;1.92;0.50;;;18.70;95.30;;;;;;5001846;28;20041;-72
2022/07/28 07:17:40;;;;;;;2.28;0.38;;;19.10;94.30;;;;;;5000871;28;20145;-71
2022/07/28 07:20:07;;;;;;;3.00;0.25;;;19.50;93.80;;;;;;4999265;28;20486;-72
2022/07/28 07:22:33;;;;;;;2.97;0.30;;;19.70;93.40;;;;;;5001381;28;20375;-73
2022/07/28 07:25:10;;;;;;;4.88;0.30;;;20.10;94.40;;;;;;5003316;28;20805;-73
2022/07/28 07:27:36;;;;;;;5.03;0.40;;;20.60;91.10;;;;;;5001188;28;20038;-73
2022/07/28 07:30:04;;;;;;;1.40;0.35;;;20.60;91.60;;;;;;5004026;28;20029;-71
2022/07/28 07:32:30;;;;;;;1.80;0.20;;;20.60;91.60;;;;;;5001822;28;20037;-71
2022/07/28 07:34:56;;;;;;;1.88;0.47;;;20.90;92.40;;;;;;5002797;28;20896;-73
2022/07/28 07:37:23;;;;;;;2.13;0.40;;;21.60;90.10;;;;;;5003866;28;20498;-72
2022/07/28 07:39:49;;;;;;;8.85;0.60;;;22.30;87.60;;;;;;5001896;28;20034;-74
2022/07/28 07:42:15;;;;;;;1.08;0.30;;;22.80;85.50;;;;;;5000316;28;20038;-72
2022/07/28 07:44:40;;;;;;;4.35;0.40;;;23.20;84.00;;;;;;5001581;28;20666;-73
2022/07/28 07:47:09;;;;;;;1.08;0.30;;;23.10;85.50;;;;;;5001805;28;20038;-72
2022/07/28 07:49:37;;;;;;;0.95;0.20;;;23.30;83.70;;;;;;5001637;28;20062;-72
2022/07/28 07:52:03;;;;;;;0.98;0.30;;;23.40;82.00;;;;;;5001823;28;20083;-72
2022/07/28 07:54:28;;;;;;;1.88;0.50;;;23.50;81.30;;;;;;5000370;28;20441;-72
2022/07/28 07:56:54;;;;;;;1.35;0.20;;;23.20;81.20;;;;;;5002323;28;20117;-73
2022/07/28 07:59:19;;;;;;;0.73;0.10;;;22.90;82.10;;;;;;5001691;28;20049;-74
2022/07/28 08:01:45;;;;;;;1.25;0.35;;;22.50;82.70;;;;;;5001392;28;20029;-73
2022/07/28 08:04:11;;;;;;;2.53;0.40;;;22.30;83.10;;;;;;5000727;28;20037;-74
2022/07/28 08:06:37;;;;;;;3.50;0.30;;;22.00;83.80;;;;;;5000563;28;20072;-72
2022/07/28 08:09:02;;;;;;;2.45;0.50;;;21.60;84.10;;;;;;5001515;28;20506;-73
2022/07/28 08:11:28;;;;;;;1.27;0.20;;;21.60;84.30;;;;;;4999871;28;20046;-72
2022/07/28 08:13:53;;;;;;;2.33;0.30;;;21.40;84.30;;;;;;5000751;28;20046;-72
2022/07/28 08:16:19;;;;;;;3.08;0.40;;;21.30;84.50;;;;;;5001545;28;20056;-73
2022/07/28 08:18:45;;;;;;;5.55;0.38;;;21.10;84.70;;;;;;5000541;28;20261;-72
2022/07/28 08:21:11;;;;;;;0.70;0.30;;;21.10;85.50;;;;;;5002205;28;20399;-72
2022/07/28 08:23:37;;;;;;;1.70;0.20;;;20.90;86.50;;;;;;5003636;28;20061;-73
2022/07/28 08:26:04;;;;;;;1.00;0.10;;;20.80;86.20;;;;;;5002676;28;20037;-73
2022/07/28 08:28:30;;;;;;;3.22;0.25;;;20.80;85.80;;;;;;5004086;28;20108;-71
2022/07/28 08:30:56;;;;;;;1.45;0.20;;;20.60;87.40;;;;;;5000073;28;20042;-72
2022/07/28 08:33:21;;;;;;;1.02;0.10;;;20.50;88.20;;;;;;5003970;28;20068;-72
2022/07/28 08:35:48;;;;;;;4.65;0.20;;;20.70;87.20;;;;;;5001666;28;20522;-72
2022/07/28 08:38:14;;;;;;;1.05;0.28;;;20.70;87.30;;;;;;5004435;28;20054;-72
2022/07/28 08:40:41;;;;;;;1.75;0.20;;;20.80;87.50;;;;;;5002564;28;20058;-71
2022/07/28 08:43:33;;;;;;;1.33;0.10;;;20.70;87.70;;;;;;5001357;28;20502;-71
2022/07/28 08:46:00;;;;;;;4.07;0.30;;;20.80;89.60;;;;;;5000389;28;20034;-71
2022/07/28 08:48:31;;;;;;;0.90;0.20;;;20.90;87.70;;;;;;5003133;28;20127;-73
2022/07/28 08:51:00;;;;;;;;;;;20.90;87.40;;;;;;5003512;28;20041;-71
2022/07/28 08:53:27;;;;;;;1.35;0.30;;;21.00;87.80;;;;;;5001156;28;19921;-72
2022/07/28 08:55:53;;;;;;;0.85;0.10;;;21.00;87.30;;;;;;5002582;28;20049;-72
2022/07/28 08:58:20;;;;;;;2.63;0.28;;;21.10;87.60;;;;;;5003132;28;20050;-71
2022/07/28 09:00:46;;;;;;;2.10;0.20;;;21.10;86.90;;;;;;4999769;28;20041;-73
2022/07/28 09:03:12;;;;;;;1.77;0.30;;;21.20;87.00;;;;;;5004693;28;20042;-73
2022/07/28 09:05:41;;;;;;;2.83;0.25;;;21.20;84.80;;;;;;5001842;28;20030;-73
2022/07/28 09:08:07;;;;;;;4.57;0.55;;;21.20;85.90;;;;;;4999417;28;20914;-72
2022/07/28 09:10:32;;;;;;;1.13;0.13;;;21.20;86.50;;;;;;5002142;28;20069;-72
2022/07/28 09:12:58;;;;;;;1.58;0.20;;;21.20;85.80;;;;;;5004546;28;20577;-73
2022/07/28 09:15:24;;;;;;;1.52;0.50;;;21.30;83.80;;;;;;5002337;28;20068;-72
2022/07/28 09:17:49;;;;;;;0.68;0.22;;;21.40;82.90;;;;;;5004089;28;20061;-70
2022/07/28 09:20:15;;;;;;;1.20;0.13;;;21.40;83.00;;;;;;5007572;28;20546;-72
2022/07/28 09:23:16;;;;;;;0.82;0.22;;;21.30;82.20;;;;;;5003628;28;20894;-71
2022/07/28 09:25:42;;;;;;;0.70;0.10;;;21.20;83.00;;;;;;4943254;28;20050;-71
2022/07/28 09:28:10;;;;;;;1.00;0.20;;;21.10;84.60;;;;;;4992617;28;20108;-73
2022/07/28 09:30:39;;;;;;;4.10;0.30;;;21.10;84.70;;;;;;5003080;28;20042;-73
2022/07/28 09:33:22;;;;;;;1.17;0.20;;;21.20;84.40;;;;;;5004682;28;20050;-71
2022/07/28 09:35:56;;;;;;;3.55;0.30;;;21.30;83.40;;;;;;5003357;28;20755;-72
2022/07/28 09:38:23;;;;;;;1.45;0.20;;;21.40;82.10;;;;;;5002787;28;20504;-71
2022/07/28 09:40:59;;;;;;;0.70;0.10;;;21.30;82.10;;;;;;4999210;28;20026;-72
2022/07/28 09:43:51;;;;;;;1.10;0.20;;;21.30;81.20;;;;;;4999911;28;20073;-73
2022/07/28 09:46:19;;;;;;;0.68;0.10;;;21.30;82.30;;;;;;4997618;28;20038;-72
2022/07/28 09:48:47;;;;;;;2.70;0.80;;;21.40;82.00;;;;;;5001970;28;20044;-72
2022/07/28 09:51:13;;;;;;;2.58;0.50;;;21.50;80.20;;;;;;5006960;28;20117;-73
2022/07/28 09:53:39;;;;;;;0.40;0.20;;;21.60;81.50;;;;;;4999114;28;20038;-73
2022/07/28 09:56:06;;;;;;;1.95;0.25;;;21.70;80.60;;;;;;5005398;28;20053;-73
2022/07/28 09:58:31;;;;;;;3.72;0.40;;;22.00;80.20;;;;;;5005465;28;20045;-71
2022/07/28 10:01:10;;;;;;;0.55;0.10;;;22.10;80.80;;;;;;5009313;28;20042;-73
2022/07/28 10:03:37;;;;;;;0.43;0.10;;;22.00;79.80;;;;;;5006372;28;20410;-71
2022/07/28 10:06:06;;;;;;;2.38;0.43;;;21.90;78.50;;;;;;5004809;28;20080;-73
2022/07/28 10:08:43;;;;;;;1.15;0.10;;;22.10;78.80;;;;;;5006091;28;20207;-74
2022/07/28 10:11:09;;;;;;;3.80;0.17;;;22.30;78.70;;;;;;5010037;28;20042;-73
2022/07/28 10:14:05;;;;;;;1.98;0.20;;;22.30;77.40;;;;;;5008195;28;20147;-74
2022/07/28 10:16:52;;;;;;;0.13;0.00;;;22.20;77.90;;;;;;5005807;28;20112;-73
2022/07/28 10:19:17;;;;;;;0.38;0.30;;;22.20;76.60;;;;;;5008882;28;20061;-74
2022/07/28 10:21:45;;;;;;;0.90;0.20;;;22.20;76.10;;;;;;5007395;28;20053;-74
2022/07/28 10:24:21;;;;;;;0.35;0.03;;;22.30;76.50;;;;;;5010674;28;20117;-71
2022/07/28 10:26:47;;;;;;;1.45;0.10;;;22.40;76.90;;;;;;5008026;28;20076;-72
2022/07/28 10:29:15;;;;;;;6.03;1.20;;;22.30;74.80;;;;;;5009019;28;20034;-73
2022/07/28 10:31:48;;;;;;;0.22;0.10;;;22.40;76.10;;;;;;5006366;28;20041;-75
2022/07/28 10:34:23;;;;;;;2.70;0.20;;;22.40;76.70;;;;;;5007752;28;20063;-73
2022/07/28 10:36:51;;;;;;;3.13;0.05;;;22.50;77.70;;;;;;5003491;28;20044;-74
2022/07/28 10:39:22;;;;;;;1.90;0.30;;;22.70;77.60;;;;;;5003140;28;20037;-71
2022/07/28 10:41:48;;;;;;;2.75;0.45;;;22.90;76.70;;;;;;5005219;28;20045;-72
2022/07/28 10:44:17;;;;;;;0.73;0.20;;;22.80;77.40;;;;;;5007421;28;20076;-74
2022/07/28 10:46:43;;;;;;;0.25;0.00;;;22.90;74.90;;;;;;5007804;28;20033;-74
2022/07/28 10:49:10;;;;;;;2.70;1.02;;;22.80;75.60;;;;;;5005802;28;20036;-72
2022/07/28 10:51:40;;;;;;;3.05;0.25;;;22.70;76.40;;;;;;5003971;28;20049;-75
2022/07/28 10:54:15;;;;;;;1.60;0.10;;;22.70;75.60;;;;;;5003617;28;20041;-73
2022/07/28 10:56:53;;;;;;;1.08;0.15;;;22.70;75.40;;;;;;4998509;28;20042;-74
2022/07/28 10:59:28;;;;;;;4.15;0.25;;;22.70;76.60;;;;;;5002151;28;20045;-74
2022/07/28 11:01:53;;;;;;;1.08;0.20;;;22.70;77.10;;;;;;5001810;28;20042;-73
2022/07/28 11:04:43;;;;;;;1.38;0.20;;;22.70;78.00;;;;;;5004370;28;20045;-74
2022/07/28 11:07:14;;;;;;;1.70;0.10;;;22.80;77.20;;;;;;4996875;28;20041;-74
2022/07/28 11:09:40;;;;;;;1.27;0.20;;;22.70;76.30;;;;;;5006334;28;20044;-74
2022/07/28 11:12:06;;;;;;;1.10;0.20;;;22.70;75.40;;;;;;5002649;28;21597;-75
2022/07/28 11:14:34;;;;;;;2.97;0.32;;;22.60;76.40;;;;;;5003062;28;20034;-73
2022/07/28 11:17:00;;;;;;;1.83;0.10;;;22.70;73.60;;;;;;5002031;28;20029;-75
2022/07/28 11:19:44;;;;;;;3.25;0.20;;;22.70;74.80;;;;;;5001851;28;20046;-75
2022/07/28 11:22:17;;;;;;;1.42;0.15;;;22.50;74.80;;;;;;5003501;28;20504;-72
2022/07/28 11:25:01;;;;;;;0.73;0.20;;;22.50;75.50;;;;;;5004239;28;20045;-75
2022/07/28 11:27:50;;;;;;;0.50;0.10;;;22.60;76.30;;;;;;5001970;28;20434;-72
2022/07/28 11:30:30;;;;;;;0.73;0.30;;;22.70;77.70;;;;;;4997788;28;20069;-73
2022/07/28 11:32:57;;;;;;;1.08;0.03;;;22.80;74.50;;;;;;5000620;28;20066;-72
2022/07/28 11:35:23;;;;;;;0.47;0.10;;;22.70;76.10;;;;;;5002449;28;20057;-73
2022/07/28 11:38:00;;;;;;;0.75;0.20;;;22.80;75.60;;;;;;5001174;28;20030;-74
2022/07/28 11:40:33;;;;;;;1.50;0.50;;;22.90;75.20;;;;;;5000566;28;20054;-73
2022/07/28 11:43:21;;;;;;;5.57;0.22;;;22.70;75.90;;;;;;5003274;28;20038;-75
2022/07/28 11:45:51;;;;;;;0.75;0.20;;;22.60;74.40;;;;;;5002817;28;20044;-73
2022/07/28 11:48:22;;;;;;;1.45;0.20;;;22.50;75.20;;;;;;5000285;28;20445;-74
2022/07/28 11:51:03;;;;;;;1.83;0.10;;;22.40;76.80;;;;;;5002145;28;20034;-73
2022/07/28 11:53:33;;;;;;;0.43;0.10;;;22.50;76.50;;;;;;4999089;28;20049;-73
2022/07/28 11:56:01;;;;;;;;;;;22.60;76.80;;;;;;5004049;28;20052;-74
2022/07/28 11:58:26;;;;;;;1.73;0.17;;;22.60;76.20;;;;;;4999131;28;19927;-72
2022/07/28 12:01:13;;;;;;;1.95;0.17;;;22.50;75.20;;;;;;5001163;28;20418;-75
2022/07/28 12:03:40;;;;;;;0.93;0.20;;;22.40;75.30;;;;;;5002719;28;20060;-75
2022/07/28 12:06:06;;;;;;;1.00;0.28;;;22.30;78.20;;;;;;4999981;28;20287;-74
2022/07/28 12:08:51;;;;;;;0.40;0.10;;;22.50;78.00;;;;;;5000920;28;20409;-75
2022/07/28 12:11:16;;;;;;;0.38;0.30;;;22.70;77.00;;;;;;5000940;28;20057;-72
2022/07/28 12:13:42;;;;;;;2.25;0.10;;;22.90;75.60;;;;;;5003006;28;20041;-73
2022/07/28 12:16:08;;;;;;;1.92;0.40;;;23.00;75.80;;;;;;5003623;28;20132;-71
2022/07/28 12:18:34;;;;;;;1.65;0.20;;;22.90;76.60;;;;;;4998681;28;20116;-73
2022/07/28 12:20:59;;;;;;;1.88;0.32;;;22.90;77.90;;;;;;5003263;28;20034;-75
2022/07/28 12:23:35;;;;;;;2.10;0.05;;;23.00;78.50;;;;;;5000795;28;20052;-74
2022/07/28 12:26:03;;;;;;;2.88;0.30;;;23.10;77.00;;;;;;5000714;28;20030;-73
2022/07/28 12:28:31;;;;;;;1.27;0.25;;;23.00;76.70;;;;;;5000702;28;20064;-74
2022/07/28 12:31:10;;;;;;;5.57;0.20;;;23.10;76.10;;;;;;5003580;28;20041;-74
2022/07/28 12:33:35;;;;;;;2.40;0.20;;;23.00;77.00;;;;;;5002232;28;22506;-71
2022/07/28 12:36:01;;;;;;;1.88;0.20;;;23.00;75.90;;;;;;5000594;28;20049;-75
2022/07/28 12:38:27;;;;;;;0.52;0.20;;;23.00;75.50;;;;;;5003613;28;20080;-75
2022/07/28 12:40:54;;;;;;;0.32;0.10;;;22.90;76.60;;;;;;5003397;28;20474;-75
2022/07/28 12:43:26;;;;;;;2.35;0.40;;;22.80;77.60;;;;;;5001572;28;20627;-74
2022/07/28 12:45:52;;;;;;;0.38;0.10;;;22.70;76.90;;;;;;5003112;28;20034;-75
2022/07/28 12:48:18;;;;;;;2.28;0.20;;;22.70;77.10;;;;;;5003201;28;20038;-74
2022/07/28 12:50:44;;;;;;;0.52;0.20;;;22.70;75.50;;;;;;5001752;28;20120;-74
2022/07/28 12:53:11;;;;;;;1.23;0.20;;;22.70;77.00;;;;;;5005804;28;20468;-75
2022/07/28 12:55:38;;;;;;;2.08;0.20;;;22.60;77.60;;;;;;5008470;28;20045;-75